createdAt,value
2023-08-28T00:00:31.362Z,99.33
2023-08-28T00:03:34.645Z,99.61
2023-08-28T00:06:39.289Z,100.00
2023-08-28T00:09:42.530Z,100.00
2023-08-28T00:12:46.452Z,100.00
2023-08-28T00:15:49.717Z,99.91
2023-08-28T00:18:53.014Z,100.00
2023-08-28T00:21:58.207Z,99.78
2023-08-28T00:25:01.420Z,99.26
2023-08-28T00:28:04.866Z,99.20
2023-08-28T00:31:08.140Z,99.23
2023-08-28T00:34:11.626Z,99.37
2023-08-28T00:37:17.245Z,99.02
2023-08-28T00:40:20.709Z,98.93
2023-08-28T00:43:24.130Z,98.71
2023-08-28T00:46:28.145Z,98.07
2023-08-28T00:49:32.430Z,97.05
2023-08-28T00:52:37.338Z,96.82
2023-08-28T00:55:40.575Z,96.88
2023-08-28T00:58:43.880Z,97.04
2023-08-28T01:01:47.303Z,97.08
2023-08-28T01:04:50.612Z,97.16
2023-08-28T01:07:59.915Z,97.34
2023-08-28T01:11:12.907Z,96.75
2023-08-28T01:14:24.128Z,96.28
2023-08-28T01:17:29.000Z,96.84
2023-08-28T01:20:35.440Z,98.05
2023-08-28T01:23:46.451Z,98.59
2023-08-28T01:26:51.797Z,98.56
2023-08-28T01:30:12.356Z,98.58
2023-08-28T01:33:17.053Z,97.76
2023-08-28T01:36:25.690Z,96.87
2023-08-28T01:39:38.777Z,96.61
2023-08-28T01:42:45.719Z,96.21
2023-08-28T01:45:51.600Z,95.44
2023-08-28T01:48:55.108Z,96.15
2023-08-28T01:52:00.028Z,96.14
2023-08-28T01:55:03.820Z,97.07
2023-08-28T01:58:08.467Z,97.89
2023-08-28T02:01:12.233Z,97.80
2023-08-28T02:04:15.776Z,98.61
2023-08-28T02:07:19.032Z,98.47
2023-08-28T02:10:23.219Z,98.53
2023-08-28T02:13:28.418Z,98.73
2023-08-28T02:16:31.746Z,98.92
2023-08-28T02:19:35.072Z,98.78
2023-08-28T02:22:38.427Z,99.19
2023-08-28T02:25:42.905Z,99.17
2023-08-28T02:28:48.576Z,99.26
2023-08-28T02:31:51.823Z,99.22
2023-08-28T02:34:55.034Z,99.03
2023-08-28T02:37:58.887Z,98.72
2023-08-28T02:41:06.869Z,98.74
2023-08-28T02:44:11.438Z,98.91
2023-08-28T02:47:16.494Z,99.15
2023-08-28T02:50:19.806Z,99.23
2023-08-28T02:53:23.059Z,99.44
2023-08-28T02:56:27.882Z,99.75
2023-08-28T02:59:32.910Z,100.00
2023-08-28T03:02:36.439Z,100.00
2023-08-28T03:05:39.790Z,100.00
2023-08-28T03:08:43.083Z,99.78
2023-08-28T03:11:46.417Z,99.42
2023-08-28T03:14:50.980Z,98.67
2023-08-28T03:17:54.418Z,98.40
2023-08-28T03:20:57.695Z,98.37
2023-08-28T03:24:01.006Z,98.51
2023-08-28T03:27:04.243Z,99.18
2023-08-28T03:30:10.756Z,98.67
2023-08-28T03:33:14.042Z,98.96
2023-08-28T03:36:17.302Z,98.89
2023-08-28T03:39:20.528Z,99.05
2023-08-28T03:42:23.761Z,99.11
2023-08-28T03:45:29.144Z,99.65
2023-08-28T03:48:32.529Z,99.59
2023-08-28T03:51:35.801Z,100.00
2023-08-28T03:54:39.134Z,99.76
2023-08-28T03:57:42.397Z,99.85
2023-08-28T04:00:47.036Z,99.66
2023-08-28T04:03:50.331Z,99.93
2023-08-28T04:06:53.742Z,99.68
2023-08-28T04:09:56.945Z,99.28
2023-08-28T04:13:00.320Z,98.69
2023-08-28T04:16:06.989Z,98.41
2023-08-28T04:19:10.308Z,98.48
2023-08-28T04:22:13.632Z,97.96
2023-08-28T04:25:17.100Z,97.74
2023-08-28T04:28:21.096Z,97.83
2023-08-28T04:31:25.951Z,97.94
2023-08-28T04:34:29.224Z,98.46
2023-08-28T04:37:32.566Z,98.16
2023-08-28T04:40:35.848Z,97.44
2023-08-28T04:43:39.061Z,97.36
2023-08-28T04:46:43.849Z,96.83
2023-08-28T04:49:47.108Z,97.20
2023-08-28T04:52:52.214Z,96.63
2023-08-28T04:55:56.364Z,96.35
2023-08-28T04:59:00.116Z,95.22
2023-08-28T05:02:04.866Z,94.96
2023-08-28T05:05:09.160Z,95.39
2023-08-28T05:08:12.453Z,95.21
2023-08-28T05:11:15.655Z,95.30
2023-08-28T05:14:19.329Z,95.81
2023-08-28T05:17:23.964Z,96.09
2023-08-28T05:20:27.292Z,96.26
2023-08-28T05:23:30.605Z,96.45
2023-08-28T05:26:33.901Z,96.00
2023-08-28T05:29:37.217Z,95.31
2023-08-28T05:32:41.898Z,95.72
2023-08-28T05:35:45.611Z,96.29
2023-08-28T05:38:48.855Z,95.56
2023-08-28T05:41:53.040Z,95.12
2023-08-28T05:44:56.408Z,94.75
2023-08-28T05:48:01.194Z,94.88
2023-08-28T05:51:04.851Z,95.31
2023-08-28T05:54:08.534Z,94.72
2023-08-28T05:57:11.815Z,95.42
2023-08-28T06:00:16.248Z,95.27
2023-08-28T06:03:21.397Z,95.15
2023-08-28T06:06:24.980Z,94.52
2023-08-28T06:09:28.844Z,92.86
2023-08-28T06:12:32.162Z,93.42
2023-08-28T06:15:35.647Z,93.15
2023-08-28T06:18:40.250Z,93.36
2023-08-28T06:21:46.338Z,93.50
2023-08-28T06:24:54.033Z,93.99
2023-08-28T06:27:57.540Z,94.12
2023-08-28T06:31:00.947Z,92.92
2023-08-28T06:34:05.661Z,93.92
2023-08-28T06:37:08.948Z,93.46
2023-08-28T06:40:12.573Z,93.32
2023-08-28T06:43:15.768Z,92.88
2023-08-28T06:46:19.588Z,91.76
2023-08-28T06:49:24.204Z,90.64
2023-08-28T06:52:27.676Z,91.69
2023-08-28T06:55:30.944Z,88.88
2023-08-28T06:58:34.617Z,88.74
2023-08-28T07:01:37.830Z,88.40
2023-08-28T07:04:42.523Z,86.42
2023-08-28T07:07:45.885Z,85.36
2023-08-28T07:10:49.216Z,85.00
2023-08-28T07:13:52.468Z,84.92
2023-08-28T07:16:56.149Z,83.90
2023-08-28T07:20:00.831Z,84.22
2023-08-28T07:23:04.876Z,83.63
2023-08-28T07:26:08.887Z,81.57
2023-08-28T07:29:12.288Z,81.79
2023-08-28T07:32:15.714Z,85.64
2023-08-28T07:35:20.429Z,82.54
2023-08-28T07:38:23.729Z,82.70
2023-08-28T07:41:27.016Z,82.25
2023-08-28T07:44:30.295Z,82.48
2023-08-28T07:47:33.585Z,82.94
2023-08-28T07:50:38.183Z,82.44
2023-08-28T07:53:41.575Z,81.80
2023-08-28T07:56:44.844Z,82.51
2023-08-28T07:59:48.220Z,80.28
2023-08-28T08:02:52.799Z,80.32
2023-08-28T08:05:57.736Z,79.86
2023-08-28T08:09:00.927Z,78.45
2023-08-28T08:12:05.233Z,78.51
2023-08-28T08:15:09.910Z,78.96
2023-08-28T08:18:13.188Z,81.61
2023-08-28T08:21:18.024Z,82.12
2023-08-28T08:24:21.289Z,83.30
2023-08-28T08:27:26.456Z,82.43
2023-08-28T08:30:31.602Z,81.90
2023-08-28T08:33:34.910Z,80.37
2023-08-28T08:36:40.678Z,81.78
2023-08-28T08:39:44.241Z,80.49
2023-08-28T08:42:47.819Z,80.75
2023-08-28T08:45:54.478Z,81.45
2023-08-28T08:49:02.795Z,81.25
2023-08-28T08:52:10.993Z,80.74
2023-08-28T08:55:22.252Z,81.78
2023-08-28T08:58:27.895Z,81.70
2023-08-28T09:01:32.704Z,81.78
2023-08-28T09:04:37.216Z,81.96
2023-08-28T09:07:41.921Z,80.90
2023-08-28T09:10:47.450Z,81.03
2023-08-28T09:13:50.899Z,79.39
2023-08-28T09:16:54.183Z,80.13
2023-08-28T09:19:57.494Z,79.05
2023-08-28T09:23:03.224Z,79.09
2023-08-28T09:26:06.710Z,79.03
2023-08-28T09:29:11.124Z,77.20
2023-08-28T09:32:14.818Z,78.01
2023-08-28T09:35:18.153Z,78.09
2023-08-28T09:38:22.998Z,77.80
2023-08-28T09:41:37.758Z,77.36
2023-08-28T09:44:40.957Z,77.46
2023-08-28T09:47:45.313Z,77.18
2023-08-28T09:50:53.994Z,77.67
2023-08-28T09:54:02.838Z,75.68
2023-08-28T09:57:16.741Z,75.27
2023-08-28T10:00:20.428Z,75.04
2023-08-28T10:03:25.776Z,75.34
2023-08-28T10:06:31.083Z,73.55
2023-08-28T10:09:36.895Z,75.24
2023-08-28T10:12:42.909Z,73.56
2023-08-28T10:15:53.438Z,75.11
2023-08-28T10:19:01.997Z,73.92
2023-08-28T10:22:09.273Z,74.03
2023-08-28T10:25:15.804Z,72.87
2023-08-28T10:28:20.759Z,73.47
2023-08-28T10:31:25.399Z,74.72
2023-08-28T10:34:30.430Z,74.61
2023-08-28T10:37:34.544Z,71.87
2023-08-28T10:40:39.610Z,71.84
2023-08-28T10:43:43.915Z,72.39
2023-08-28T10:46:48.881Z,71.57
2023-08-28T10:49:55.751Z,71.15
2023-08-28T10:53:00.723Z,73.36
2023-08-28T10:56:07.473Z,73.65
2023-08-28T10:59:32.035Z,72.54
2023-08-28T11:03:09.986Z,72.93
2023-08-28T11:06:40.557Z,74.58
2023-08-28T11:09:44.194Z,75.75
2023-08-28T11:12:57.634Z,75.17
2023-08-28T11:16:05.731Z,75.15
2023-08-28T11:19:09.242Z,74.86
2023-08-28T11:22:13.154Z,75.36
2023-08-28T11:25:41.716Z,73.33
2023-08-28T11:28:47.573Z,72.39
2023-08-28T11:31:52.104Z,73.59
2023-08-28T11:34:55.332Z,73.23
2023-08-28T11:37:58.536Z,73.76
2023-08-28T11:41:05.771Z,72.15
2023-08-28T11:44:14.438Z,72.41
2023-08-28T11:47:17.743Z,73.66
2023-08-28T11:50:21.136Z,72.53
2023-08-28T11:53:30.969Z,75.00
2023-08-28T11:56:36.428Z,74.13
2023-08-28T11:59:42.855Z,73.01
2023-08-28T12:02:50.198Z,74.18
2023-08-28T12:06:02.727Z,74.59
2023-08-28T12:09:06.245Z,74.11
2023-08-28T12:12:09.637Z,73.53
2023-08-28T12:15:14.232Z,73.48
2023-08-28T12:18:17.550Z,73.35
2023-08-28T12:21:34.642Z,73.84
2023-08-28T12:24:41.911Z,74.00
2023-08-28T12:27:47.610Z,72.04
2023-08-28T12:30:55.127Z,72.72
2023-08-28T12:33:58.609Z,72.86
2023-08-28T12:37:09.298Z,71.96
2023-08-28T12:40:13.568Z,73.33
2023-08-28T12:43:17.430Z,73.34
2023-08-28T12:46:22.330Z,73.71
2023-08-28T12:49:25.822Z,73.70
2023-08-28T12:52:31.387Z,73.58
2023-08-28T12:55:34.954Z,74.02
2023-08-28T12:58:38.263Z,74.89
2023-08-28T13:01:43.915Z,75.26
2023-08-28T13:04:47.428Z,73.93
2023-08-28T13:07:50.810Z,71.23
2023-08-28T13:10:54.231Z,73.23
2023-08-28T13:13:57.541Z,73.69
2023-08-28T13:17:02.145Z,73.47
2023-08-28T13:20:06.123Z,74.37
2023-08-28T13:23:09.385Z,75.47
2023-08-28T13:26:12.684Z,75.27
2023-08-28T13:29:16.218Z,75.80
2023-08-28T13:32:21.044Z,75.54
2023-08-28T13:35:25.583Z,75.07
2023-08-28T13:38:28.869Z,74.54
2023-08-28T13:41:32.772Z,74.85
2023-08-28T13:44:37.260Z,76.12
2023-08-28T13:47:42.399Z,73.57
2023-08-28T13:50:45.702Z,75.64
2023-08-28T13:53:49.138Z,75.41
2023-08-28T13:56:52.421Z,76.04
2023-08-28T13:59:55.655Z,75.10
2023-08-28T14:03:00.423Z,75.39
2023-08-28T14:06:04.257Z,75.36
2023-08-28T14:09:08.085Z,76.35
2023-08-28T14:12:11.304Z,76.71
2023-08-28T14:15:14.914Z,75.95
2023-08-28T14:18:22.302Z,76.17
2023-08-28T14:21:25.833Z,76.72
2023-08-28T14:24:29.205Z,76.67
2023-08-28T14:27:46.463Z,76.40
2023-08-28T14:30:56.312Z,77.20
2023-08-28T14:34:02.241Z,77.69
2023-08-28T14:37:05.998Z,77.72
2023-08-28T14:40:10.922Z,77.33
2023-08-28T14:43:14.108Z,76.82
2023-08-28T14:46:17.437Z,78.48
2023-08-28T14:49:25.217Z,76.58
2023-08-28T14:52:28.567Z,75.74
2023-08-28T14:55:31.794Z,77.38
2023-08-28T14:58:35.089Z,78.13
2023-08-28T15:01:38.493Z,77.06
2023-08-28T15:04:43.128Z,78.94
2023-08-28T15:07:46.344Z,79.88
2023-08-28T15:10:51.138Z,79.99
2023-08-28T15:13:54.419Z,78.99
2023-08-28T15:16:57.875Z,78.66
2023-08-28T15:20:03.078Z,79.57
2023-08-28T15:23:09.761Z,79.15
2023-08-28T15:26:16.990Z,78.77
2023-08-28T15:29:21.996Z,78.73
2023-08-28T15:32:27.181Z,78.85
2023-08-28T15:35:32.879Z,79.07
2023-08-28T15:38:36.068Z,78.98
2023-08-28T15:41:39.304Z,79.07
2023-08-28T15:44:42.611Z,79.07
2023-08-28T15:47:47.611Z,78.78
2023-08-28T15:50:52.347Z,78.49
2023-08-28T15:53:55.584Z,77.55
2023-08-28T15:56:58.806Z,77.74
2023-08-28T16:00:02.028Z,76.25
2023-08-28T16:03:09.275Z,77.11
2023-08-28T16:06:13.910Z,77.50
2023-08-28T16:09:17.253Z,76.79
2023-08-28T16:12:20.517Z,76.42
2023-08-28T16:15:24.195Z,76.39
2023-08-28T16:18:27.479Z,76.60
2023-08-28T16:21:35.962Z,77.58
2023-08-28T16:24:39.220Z,78.31
2023-08-28T16:27:45.225Z,78.72
2023-08-28T16:30:49.305Z,78.06
2023-08-28T16:33:52.737Z,78.56
2023-08-28T16:36:57.400Z,78.43
2023-08-28T16:40:00.697Z,78.83
2023-08-28T16:43:04.319Z,79.16
2023-08-28T16:46:07.779Z,79.47
2023-08-28T16:49:10.971Z,78.10
2023-08-28T16:52:15.588Z,78.34
2023-08-28T16:55:18.981Z,78.25
2023-08-28T16:58:22.432Z,78.68
2023-08-28T17:01:25.710Z,78.83
2023-08-28T17:04:29.137Z,78.48
2023-08-28T17:07:33.854Z,77.98
2023-08-28T17:10:37.124Z,77.15
2023-08-28T17:13:40.358Z,77.87
2023-08-28T17:16:43.762Z,78.37
2023-08-28T17:19:46.981Z,76.92
2023-08-28T17:22:51.603Z,78.44
2023-08-28T17:25:54.886Z,78.39
2023-08-28T17:28:59.047Z,79.20
2023-08-28T17:32:02.366Z,79.61
2023-08-28T17:35:06.227Z,78.92
2023-08-28T17:38:10.828Z,79.29
2023-08-28T17:41:14.091Z,79.17
2023-08-28T17:44:17.719Z,78.19
2023-08-28T17:47:20.917Z,78.25
2023-08-28T17:50:24.779Z,78.92
2023-08-28T17:53:29.360Z,79.79
2023-08-28T17:56:35.875Z,79.93
2023-08-28T17:59:39.139Z,79.91
2023-08-28T18:02:59.849Z,80.93
2023-08-28T18:06:05.606Z,80.98
2023-08-28T18:09:10.478Z,81.21
2023-08-28T18:12:14.047Z,80.95
2023-08-28T18:15:18.371Z,80.53
2023-08-28T18:18:21.763Z,80.78
2023-08-28T18:21:25.707Z,81.29
2023-08-28T18:24:30.977Z,80.76
2023-08-28T18:27:37.972Z,80.95
2023-08-28T18:30:47.347Z,80.77
2023-08-28T18:33:50.844Z,81.02
2023-08-28T18:36:54.198Z,80.99
2023-08-28T18:39:59.295Z,80.58
2023-08-28T18:43:04.826Z,80.94
2023-08-28T18:46:10.850Z,80.60
2023-08-28T18:49:14.292Z,79.84
2023-08-28T18:52:21.851Z,80.49
2023-08-28T18:55:32.852Z,80.61
2023-08-28T18:58:36.678Z,80.88
2023-08-28T19:01:39.971Z,80.67
2023-08-28T19:04:43.328Z,81.43
2023-08-28T19:07:46.605Z,80.95
2023-08-28T19:10:51.226Z,81.99
2023-08-28T19:13:54.504Z,81.97
2023-08-28T19:16:57.809Z,82.89
2023-08-28T19:20:02.494Z,82.27
2023-08-28T19:23:06.187Z,82.47
2023-08-28T19:26:11.128Z,82.46
2023-08-28T19:29:14.425Z,81.91
2023-08-28T19:32:18.044Z,82.25
2023-08-28T19:35:21.996Z,82.17
2023-08-28T19:38:25.220Z,81.85
2023-08-28T19:41:29.862Z,80.91
2023-08-28T19:44:33.169Z,81.47
2023-08-28T19:47:36.722Z,81.15
2023-08-28T19:50:39.979Z,82.32
2023-08-28T19:53:43.771Z,82.27
2023-08-28T19:56:48.537Z,83.37
2023-08-28T19:59:51.867Z,83.18
2023-08-28T20:02:55.368Z,83.25
2023-08-28T20:06:03.127Z,82.93
2023-08-28T20:09:07.262Z,82.70
2023-08-28T20:12:13.799Z,83.15
2023-08-28T20:15:18.098Z,83.47
2023-08-28T20:18:23.823Z,82.90
2023-08-28T20:21:27.832Z,82.70
2023-08-28T20:24:33.071Z,83.04
2023-08-28T20:27:39.389Z,83.81
2023-08-28T20:30:45.047Z,82.70
2023-08-28T20:33:48.278Z,83.65
2023-08-28T20:36:51.704Z,83.61
2023-08-28T20:39:54.993Z,83.53
2023-08-28T20:42:59.632Z,83.26
2023-08-28T20:46:03.634Z,83.13
2023-08-28T20:49:07.334Z,83.08
2023-08-28T20:52:11.416Z,81.99
2023-08-28T20:55:14.796Z,81.63
2023-08-28T20:58:19.483Z,81.79
2023-08-28T21:01:23.279Z,82.28
2023-08-28T21:04:26.496Z,82.03
2023-08-28T21:07:29.720Z,82.63
2023-08-28T21:10:34.659Z,82.17
2023-08-28T21:13:39.481Z,82.65
2023-08-28T21:16:42.859Z,82.31
2023-08-28T21:19:46.102Z,82.43
2023-08-28T21:22:51.213Z,82.90
2023-08-28T21:25:58.681Z,84.75
2023-08-28T21:29:03.361Z,85.68
2023-08-28T21:32:08.368Z,86.62
2023-08-28T21:35:11.732Z,86.46
2023-08-28T21:38:15.046Z,87.33
2023-08-28T21:41:18.304Z,87.78
2023-08-28T21:44:22.963Z,89.05
2023-08-28T21:47:26.462Z,89.33
2023-08-28T21:50:48.862Z,90.32
2023-08-28T21:54:10.932Z,90.36
2023-08-28T21:57:33.014Z,91.15
2023-08-28T22:00:57.367Z,92.56
2023-08-28T22:04:19.190Z,94.38
2023-08-28T22:07:40.872Z,95.12
2023-08-28T22:11:04.712Z,94.94
2023-08-28T22:14:22.607Z,95.19
2023-08-28T22:17:27.878Z,95.89
2023-08-28T22:20:31.492Z,96.18
2023-08-28T22:23:34.809Z,96.08
2023-08-28T22:26:38.173Z,96.03
2023-08-28T22:29:41.518Z,96.30
2023-08-28T22:32:47.215Z,96.60
